Flugplatz Ingolstadt Manching Airport

Bericht für ETSI

vom 23.02. um 23:20 UTC

Wind 24 kt aus 270° in Böen 36 kt

Sichtweite 1900 m

Temperatur 11.0°C

Taupunkt 9.0°C

Luftfeuchtigkeit 87%

Luftdruck 1019 hPa

ETSI 232320Z AUTO 27024G36KT 1900 // ////// 11/09 Q1019 ///
Keine Prognose (TAF) verfügbar.
Impressum